sensor_id;sensor_type;location;lat;lon;timestamp;P1;durP1;ratioP1;P2;durP2;ratioP2
10387;SDS011;5240;51.128;4.566;2023-03-01T00:01:37;10.30;;;6.80;;
10387;SDS011;5240;51.128;4.566;2023-03-01T00:04:04;8.60;;;6.50;;
10387;SDS011;5240;51.128;4.566;2023-03-01T00:06:31;7.68;;;6.47;;
10387;SDS011;5240;51.128;4.566;2023-03-01T00:08:58;10.68;;;6.75;;
10387;SDS011;5240;51.128;4.566;2023-03-01T00:11:26;8.70;;;6.50;;
10387;SDS011;5240;51.128;4.566;2023-03-01T00:13:55;7.63;;;6.00;;
10387;SDS011;5240;51.128;4.566;2023-03-01T00:16:25;9.75;;;6.60;;
10387;SDS011;5240;51.128;4.566;2023-03-01T00:18:53;7.82;;;6.65;;
10387;SDS011;5240;51.128;4.566;2023-03-01T00:21:21;8.10;;;6.00;;
10387;SDS011;5240;51.128;4.566;2023-03-01T00:23:49;8.00;;;6.60;;
10387;SDS011;5240;51.128;4.566;2023-03-01T00:26:17;8.68;;;6.57;;
10387;SDS011;5240;51.128;4.566;2023-03-01T00:28:45;8.95;;;6.50;;
10387;SDS011;5240;51.128;4.566;2023-03-01T00:31:15;9.10;;;6.82;;
10387;SDS011;5240;51.128;4.566;2023-03-01T00:33:45;10.70;;;7.15;;
10387;SDS011;5240;51.128;4.566;2023-03-01T00:36:13;9.15;;;7.35;;
10387;SDS011;5240;51.128;4.566;2023-03-01T00:38:42;10.30;;;6.40;;
10387;SDS011;5240;51.128;4.566;2023-03-01T00:41:11;9.02;;;6.28;;
10387;SDS011;5240;51.128;4.566;2023-03-01T00:43:40;10.40;;;6.88;;
10387;SDS011;5240;51.128;4.566;2023-03-01T00:46:08;8.52;;;6.70;;
10387;SDS011;5240;51.128;4.566;2023-03-01T00:48:37;8.77;;;6.80;;
10387;SDS011;5240;51.128;4.566;2023-03-01T00:51:06;7.80;;;6.55;;
10387;SDS011;5240;51.128;4.566;2023-03-01T00:53:34;10.15;;;6.78;;
10387;SDS011;5240;51.128;4.566;2023-03-01T00:56:02;8.35;;;7.22;;
10387;SDS011;5240;51.128;4.566;2023-03-01T00:58:29;8.90;;;6.40;;
10387;SDS011;5240;51.128;4.566;2023-03-01T01:00:57;8.90;;;7.30;;
10387;SDS011;5240;51.128;4.566;2023-03-01T01:03:24;10.02;;;6.80;;
10387;SDS011;5240;51.128;4.566;2023-03-01T01:05:51;8.00;;;6.63;;
10387;SDS011;5240;51.128;4.566;2023-03-01T01:08:19;8.23;;;6.63;;
10387;SDS011;5240;51.128;4.566;2023-03-01T01:10:47;11.02;;;6.82;;
10387;SDS011;5240;51.128;4.566;2023-03-01T01:13:14;7.77;;;6.60;;
10387;SDS011;5240;51.128;4.566;2023-03-01T01:15:41;8.35;;;6.90;;
10387;SDS011;5240;51.128;4.566;2023-03-01T01:18:08;11.68;;;6.93;;
10387;SDS011;5240;51.128;4.566;2023-03-01T01:20:35;9.73;;;7.00;;
10387;SDS011;5240;51.128;4.566;2023-03-01T01:23:04;8.10;;;6.88;;
10387;SDS011;5240;51.128;4.566;2023-03-01T01:25:35;9.15;;;6.65;;
10387;SDS011;5240;51.128;4.566;2023-03-01T01:28:02;12.45;;;7.32;;
10387;SDS011;5240;51.128;4.566;2023-03-01T01:30:29;7.83;;;6.97;;
10387;SDS011;5240;51.128;4.566;2023-03-01T01:32:56;8.35;;;7.18;;
10387;SDS011;5240;51.128;4.566;2023-03-01T01:35:23;10.05;;;7.40;;
10387;SDS011;5240;51.128;4.566;2023-03-01T01:37:50;10.63;;;7.07;;
10387;SDS011;5240;51.128;4.566;2023-03-01T01:40:18;9.60;;;6.97;;
10387;SDS011;5240;51.128;4.566;2023-03-01T01:42:46;9.40;;;7.80;;
10387;SDS011;5240;51.128;4.566;2023-03-01T01:45:27;11.50;;;7.57;;
10387;SDS011;5240;51.128;4.566;2023-03-01T01:47:57;10.53;;;7.80;;
10387;SDS011;5240;51.128;4.566;2023-03-01T01:50:28;9.30;;;7.00;;
10387;SDS011;5240;51.128;4.566;2023-03-01T01:53:03;9.25;;;7.10;;
10387;SDS011;5240;51.128;4.566;2023-03-01T01:55:34;10.90;;;7.10;;
10387;SDS011;5240;51.128;4.566;2023-03-01T01:58:07;9.30;;;7.63;;
10387;SDS011;5240;51.128;4.566;2023-03-01T02:00:37;12.07;;;7.60;;
10387;SDS011;5240;51.128;4.566;2023-03-01T02:03:07;10.80;;;7.63;;
10387;SDS011;5240;51.128;4.566;2023-03-01T02:05:37;10.77;;;7.45;;
10387;SDS011;5240;51.128;4.566;2023-03-01T02:08:10;11.87;;;8.23;;
10387;SDS011;5240;51.128;4.566;2023-03-01T02:10:38;10.07;;;6.67;;
10387;SDS011;5240;51.128;4.566;2023-03-01T02:13:08;10.48;;;7.18;;
10387;SDS011;5240;51.128;4.566;2023-03-01T02:15:36;9.43;;;7.63;;
10387;SDS011;5240;51.128;4.566;2023-03-01T02:18:05;9.43;;;7.07;;
10387;SDS011;5240;51.128;4.566;2023-03-01T02:20:34;10.93;;;7.37;;
10387;SDS011;5240;51.128;4.566;2023-03-01T02:23:07;11.60;;;8.13;;
10387;SDS011;5240;51.128;4.566;2023-03-01T02:25:37;11.23;;;8.20;;
10387;SDS011;5240;51.128;4.566;2023-03-01T02:28:19;10.50;;;7.47;;
10387;SDS011;5240;51.128;4.566;2023-03-01T02:30:51;10.20;;;7.63;;
10387;SDS011;5240;51.128;4.566;2023-03-01T02:33:37;8.70;;;7.03;;
10387;SDS011;5240;51.128;4.566;2023-03-01T02:36:06;8.93;;;7.40;;
10387;SDS011;5240;51.128;4.566;2023-03-01T02:38:38;10.40;;;7.53;;
10387;SDS011;5240;51.128;4.566;2023-03-01T02:41:06;9.50;;;7.37;;
10387;SDS011;5240;51.128;4.566;2023-03-01T02:43:36;10.50;;;7.97;;
10387;SDS011;5240;51.128;4.566;2023-03-01T02:46:05;8.40;;;7.17;;
10387;SDS011;5240;51.128;4.566;2023-03-01T02:48:40;10.83;;;7.67;;
10387;SDS011;5240;51.128;4.566;2023-03-01T02:51:10;12.00;;;8.13;;
10387;SDS011;5240;51.128;4.566;2023-03-01T02:53:46;11.20;;;8.00;;
10387;SDS011;5240;51.128;4.566;2023-03-01T02:56:22;11.77;;;7.87;;
10387;SDS011;5240;51.128;4.566;2023-03-01T02:58:51;10.83;;;7.03;;
10387;SDS011;5240;51.128;4.566;2023-03-01T03:01:19;11.07;;;7.73;;
10387;SDS011;5240;51.128;4.566;2023-03-01T03:03:46;11.87;;;7.60;;
10387;SDS011;5240;51.128;4.566;2023-03-01T03:06:14;10.70;;;7.50;;
10387;SDS011;5240;51.128;4.566;2023-03-01T03:08:41;9.77;;;6.97;;
10387;SDS011;5240;51.128;4.566;2023-03-01T03:11:09;11.90;;;7.60;;
10387;SDS011;5240;51.128;4.566;2023-03-01T03:13:36;10.43;;;7.40;;
10387;SDS011;5240;51.128;4.566;2023-03-01T03:16:14;11.07;;;7.40;;
10387;SDS011;5240;51.128;4.566;2023-03-01T03:18:41;14.80;;;7.30;;
10387;SDS011;5240;51.128;4.566;2023-03-01T03:21:08;10.67;;;7.30;;
10387;SDS011;5240;51.128;4.566;2023-03-01T03:23:36;9.30;;;7.90;;
10387;SDS011;5240;51.128;4.566;2023-03-01T03:26:04;9.40;;;7.27;;
10387;SDS011;5240;51.128;4.566;2023-03-01T03:28:32;8.63;;;7.00;;
10387;SDS011;5240;51.128;4.566;2023-03-01T03:30:59;10.37;;;7.63;;
10387;SDS011;5240;51.128;4.566;2023-03-01T03:33:29;10.30;;;7.30;;
10387;SDS011;5240;51.128;4.566;2023-03-01T03:35:57;10.57;;;8.10;;
10387;SDS011;5240;51.128;4.566;2023-03-01T03:38:24;8.57;;;7.10;;
10387;SDS011;5240;51.128;4.566;2023-03-01T03:40:52;10.20;;;7.53;;
10387;SDS011;5240;51.128;4.566;2023-03-01T03:43:27;8.93;;;7.13;;
10387;SDS011;5240;51.128;4.566;2023-03-01T03:45:56;9.43;;;7.57;;
10387;SDS011;5240;51.128;4.566;2023-03-01T03:48:24;9.43;;;7.30;;
10387;SDS011;5240;51.128;4.566;2023-03-01T03:50:53;9.47;;;7.53;;
10387;SDS011;5240;51.128;4.566;2023-03-01T03:53:22;8.63;;;6.77;;
10387;SDS011;5240;51.128;4.566;2023-03-01T03:55:51;9.43;;;7.27;;
10387;SDS011;5240;51.128;4.566;2023-03-01T03:58:19;10.70;;;6.90;;
10387;SDS011;5240;51.128;4.566;2023-03-01T04:00:48;8.90;;;6.70;;
10387;SDS011;5240;51.128;4.566;2023-03-01T04:03:17;10.83;;;7.37;;
10387;SDS011;5240;51.128;4.566;2023-03-01T04:05:45;10.63;;;7.33;;
10387;SDS011;5240;51.128;4.566;2023-03-01T04:08:16;9.17;;;6.97;;
10387;SDS011;5240;51.128;4.566;2023-03-01T04:10:45;8.97;;;7.20;;
10387;SDS011;5240;51.128;4.566;2023-03-01T04:13:14;8.70;;;7.30;;
10387;SDS011;5240;51.128;4.566;2023-03-01T04:15:44;9.73;;;7.07;;
10387;SDS011;5240;51.128;4.566;2023-03-01T04:18:12;10.00;;;6.97;;
10387;SDS011;5240;51.128;4.566;2023-03-01T04:20:40;12.90;;;6.73;;
10387;SDS011;5240;51.128;4.566;2023-03-01T04:23:08;9.60;;;7.33;;
10387;SDS011;5240;51.128;4.566;2023-03-01T04:25:42;10.13;;;7.23;;
10387;SDS011;5240;51.128;4.566;2023-03-01T04:28:14;9.17;;;6.93;;
10387;SDS011;5240;51.128;4.566;2023-03-01T04:30:42;8.73;;;7.03;;
10387;SDS011;5240;51.128;4.566;2023-03-01T04:33:09;9.87;;;7.50;;
10387;SDS011;5240;51.128;4.566;2023-03-01T04:35:37;12.13;;;7.33;;
10387;SDS011;5240;51.128;4.566;2023-03-01T04:38:05;10.60;;;7.37;;
10387;SDS011;5240;51.128;4.566;2023-03-01T04:40:33;8.07;;;6.93;;
10387;SDS011;5240;51.128;4.566;2023-03-01T04:43:01;8.23;;;6.73;;
10387;SDS011;5240;51.128;4.566;2023-03-01T04:45:29;10.07;;;7.33;;
10387;SDS011;5240;51.128;4.566;2023-03-01T04:47:59;10.23;;;7.00;;
10387;SDS011;5240;51.128;4.566;2023-03-01T04:50:26;11.67;;;7.63;;
10387;SDS011;5240;51.128;4.566;2023-03-01T04:52:53;10.43;;;7.33;;
10387;SDS011;5240;51.128;4.566;2023-03-01T04:55:23;10.27;;;7.30;;
10387;SDS011;5240;51.128;4.566;2023-03-01T04:57:51;9.87;;;7.27;;
10387;SDS011;5240;51.128;4.566;2023-03-01T05:00:21;8.73;;;6.97;;
10387;SDS011;5240;51.128;4.566;2023-03-01T05:02:49;11.53;;;7.37;;
10387;SDS011;5240;51.128;4.566;2023-03-01T05:05:23;10.60;;;7.57;;
10387;SDS011;5240;51.128;4.566;2023-03-01T05:07:52;8.80;;;6.27;;
10387;SDS011;5240;51.128;4.566;2023-03-01T05:10:21;10.83;;;7.60;;
10387;SDS011;5240;51.128;4.566;2023-03-01T05:12:49;10.53;;;7.37;;
10387;SDS011;5240;51.128;4.566;2023-03-01T05:15:17;9.90;;;7.57;;
10387;SDS011;5240;51.128;4.566;2023-03-01T05:17:48;11.13;;;6.97;;
10387;SDS011;5240;51.128;4.566;2023-03-01T05:20:15;13.17;;;6.93;;
10387;SDS011;5240;51.128;4.566;2023-03-01T05:22:42;8.97;;;7.23;;
10387;SDS011;5240;51.128;4.566;2023-03-01T05:25:09;9.27;;;6.90;;
10387;SDS011;5240;51.128;4.566;2023-03-01T05:27:39;8.20;;;6.93;;
10387;SDS011;5240;51.128;4.566;2023-03-01T05:30:06;9.40;;;7.50;;
10387;SDS011;5240;51.128;4.566;2023-03-01T05:32:40;9.73;;;7.23;;
10387;SDS011;5240;51.128;4.566;2023-03-01T05:35:11;11.10;;;7.60;;
10387;SDS011;5240;51.128;4.566;2023-03-01T05:37:40;12.33;;;7.37;;
10387;SDS011;5240;51.128;4.566;2023-03-01T05:40:08;10.20;;;6.80;;
10387;SDS011;5240;51.128;4.566;2023-03-01T05:42:42;10.00;;;6.57;;
10387;SDS011;5240;51.128;4.566;2023-03-01T05:45:10;9.70;;;7.43;;
10387;SDS011;5240;51.128;4.566;2023-03-01T05:47:38;9.33;;;7.57;;
10387;SDS011;5240;51.128;4.566;2023-03-01T05:50:11;9.93;;;7.23;;
10387;SDS011;5240;51.128;4.566;2023-03-01T05:52:43;14.70;;;7.73;;
10387;SDS011;5240;51.128;4.566;2023-03-01T05:55:11;9.23;;;6.87;;
10387;SDS011;5240;51.128;4.566;2023-03-01T05:57:38;10.13;;;7.57;;
10387;SDS011;5240;51.128;4.566;2023-03-01T06:00:06;10.13;;;7.73;;
10387;SDS011;5240;51.128;4.566;2023-03-01T06:02:34;10.43;;;7.33;;
10387;SDS011;5240;51.128;4.566;2023-03-01T06:05:01;9.97;;;8.00;;
10387;SDS011;5240;51.128;4.566;2023-03-01T06:07:30;10.47;;;7.23;;
10387;SDS011;5240;51.128;4.566;2023-03-01T06:09:57;15.53;;;8.20;;
10387;SDS011;5240;51.128;4.566;2023-03-01T06:12:24;11.77;;;8.00;;
10387;SDS011;5240;51.128;4.566;2023-03-01T06:14:51;10.37;;;7.33;;
10387;SDS011;5240;51.128;4.566;2023-03-01T06:17:18;10.47;;;7.33;;
10387;SDS011;5240;51.128;4.566;2023-03-01T06:19:46;12.23;;;8.17;;
10387;SDS011;5240;51.128;4.566;2023-03-01T06:22:13;10.03;;;7.47;;
10387;SDS011;5240;51.128;4.566;2023-03-01T06:24:41;10.20;;;7.33;;
10387;SDS011;5240;51.128;4.566;2023-03-01T06:27:08;13.20;;;8.03;;
10387;SDS011;5240;51.128;4.566;2023-03-01T06:29:35;9.90;;;7.00;;
10387;SDS011;5240;51.128;4.566;2023-03-01T06:32:02;11.40;;;8.10;;
10387;SDS011;5240;51.128;4.566;2023-03-01T06:34:30;12.00;;;7.57;;
10387;SDS011;5240;51.128;4.566;2023-03-01T06:36:57;11.43;;;8.00;;
10387;SDS011;5240;51.128;4.566;2023-03-01T06:39:24;11.23;;;7.80;;
10387;SDS011;5240;51.128;4.566;2023-03-01T06:41:54;12.50;;;7.80;;
10387;SDS011;5240;51.128;4.566;2023-03-01T06:44:22;13.03;;;8.07;;
10387;SDS011;5240;51.128;4.566;2023-03-01T06:46:49;10.43;;;7.90;;
10387;SDS011;5240;51.128;4.566;2023-03-01T06:49:16;15.33;;;7.90;;
10387;SDS011;5240;51.128;4.566;2023-03-01T06:51:43;11.37;;;7.87;;
10387;SDS011;5240;51.128;4.566;2023-03-01T06:54:11;11.13;;;8.00;;
10387;SDS011;5240;51.128;4.566;2023-03-01T06:56:38;14.27;;;8.17;;
10387;SDS011;5240;51.128;4.566;2023-03-01T06:59:07;9.33;;;7.80;;
10387;SDS011;5240;51.128;4.566;2023-03-01T07:01:34;12.57;;;8.93;;
10387;SDS011;5240;51.128;4.566;2023-03-01T07:04:01;13.60;;;8.33;;
10387;SDS011;5240;51.128;4.566;2023-03-01T07:06:28;11.00;;;7.80;;
10387;SDS011;5240;51.128;4.566;2023-03-01T07:08:55;14.23;;;8.77;;
10387;SDS011;5240;51.128;4.566;2023-03-01T07:11:22;13.07;;;8.10;;
10387;SDS011;5240;51.128;4.566;2023-03-01T07:13:49;12.27;;;8.10;;
10387;SDS011;5240;51.128;4.566;2023-03-01T07:16:18;14.03;;;9.30;;
10387;SDS011;5240;51.128;4.566;2023-03-01T07:18:45;14.90;;;8.33;;
10387;SDS011;5240;51.128;4.566;2023-03-01T07:21:13;12.17;;;8.13;;
10387;SDS011;5240;51.128;4.566;2023-03-01T07:23:41;14.33;;;8.43;;
10387;SDS011;5240;51.128;4.566;2023-03-01T07:26:08;13.57;;;8.23;;
10387;SDS011;5240;51.128;4.566;2023-03-01T07:28:36;15.90;;;8.50;;
10387;SDS011;5240;51.128;4.566;2023-03-01T07:31:04;28.63;;;9.80;;
10387;SDS011;5240;51.128;4.566;2023-03-01T07:36:09;17.73;;;8.95;;
10387;SDS011;5240;51.128;4.566;2023-03-01T07:38:37;10.73;;;7.67;;
10387;SDS011;5240;51.128;4.566;2023-03-01T07:41:28;14.47;;;8.57;;
10387;SDS011;5240;51.128;4.566;2023-03-01T07:43:56;10.67;;;7.57;;
10387;SDS011;5240;51.128;4.566;2023-03-01T07:46:24;12.63;;;8.33;;
10387;SDS011;5240;51.128;4.566;2023-03-01T07:48:51;15.70;;;8.07;;
10387;SDS011;5240;51.128;4.566;2023-03-01T07:51:20;13.73;;;8.05;;
10387;SDS011;5240;51.128;4.566;2023-03-01T07:53:47;13.63;;;7.93;;
10387;SDS011;5240;51.128;4.566;2023-03-01T07:56:15;10.68;;;8.10;;
10387;SDS011;5240;51.128;4.566;2023-03-01T07:58:44;9.65;;;8.02;;
10387;SDS011;5240;51.128;4.566;2023-03-01T08:01:12;9.30;;;7.90;;
10387;SDS011;5240;51.128;4.566;2023-03-01T08:03:41;11.15;;;7.00;;
10387;SDS011;5240;51.128;4.566;2023-03-01T08:06:09;10.10;;;7.50;;
10387;SDS011;5240;51.128;4.566;2023-03-01T08:08:42;11.23;;;7.47;;
10387;SDS011;5240;51.128;4.566;2023-03-01T08:11:10;12.48;;;7.85;;
10387;SDS011;5240;51.128;4.566;2023-03-01T08:13:38;10.70;;;7.38;;
10387;SDS011;5240;51.128;4.566;2023-03-01T08:16:06;10.48;;;7.78;;
10387;SDS011;5240;51.128;4.566;2023-03-01T08:18:36;10.43;;;7.43;;
10387;SDS011;5240;51.128;4.566;2023-03-01T08:21:03;11.63;;;7.57;;
10387;SDS011;5240;51.128;4.566;2023-03-01T08:23:32;11.75;;;7.63;;
10387;SDS011;5240;51.128;4.566;2023-03-01T08:26:11;13.45;;;8.70;;
10387;SDS011;5240;51.128;4.566;2023-03-01T08:28:42;9.98;;;7.95;;
10387;SDS011;5240;51.128;4.566;2023-03-01T08:31:16;9.13;;;7.35;;
10387;SDS011;5240;51.128;4.566;2023-03-01T08:33:44;11.35;;;7.97;;
10387;SDS011;5240;51.128;4.566;2023-03-01T08:36:15;8.98;;;7.15;;
10387;SDS011;5240;51.128;4.566;2023-03-01T08:38:43;10.55;;;7.97;;
10387;SDS011;5240;51.128;4.566;2023-03-01T08:41:12;18.90;;;8.20;;
10387;SDS011;5240;51.128;4.566;2023-03-01T08:43:40;12.88;;;7.57;;
10387;SDS011;5240;51.128;4.566;2023-03-01T08:46:13;10.18;;;7.47;;
10387;SDS011;5240;51.128;4.566;2023-03-01T08:48:40;10.57;;;7.68;;
10387;SDS011;5240;51.128;4.566;2023-03-01T08:53:44;11.23;;;7.43;;
10387;SDS011;5240;51.128;4.566;2023-03-01T08:56:14;10.07;;;7.63;;
10387;SDS011;5240;51.128;4.566;2023-03-01T08:58:56;10.98;;;6.97;;
10387;SDS011;5240;51.128;4.566;2023-03-01T09:01:24;8.63;;;7.45;;
10387;SDS011;5240;51.128;4.566;2023-03-01T09:04:05;8.95;;;6.95;;
10387;SDS011;5240;51.128;4.566;2023-03-01T09:06:34;14.07;;;7.35;;
10387;SDS011;5240;51.128;4.566;2023-03-01T09:09:18;9.18;;;7.65;;
10387;SDS011;5240;51.128;4.566;2023-03-01T09:17:54;7.40;;;6.63;;
10387;SDS011;5240;51.128;4.566;2023-03-01T09:20:21;9.38;;;6.97;;
10387;SDS011;5240;51.128;4.566;2023-03-01T09:22:50;8.57;;;6.65;;
10387;SDS011;5240;51.128;4.566;2023-03-01T09:25:17;8.15;;;6.78;;
10387;SDS011;5240;51.128;4.566;2023-03-01T09:28:07;8.52;;;6.70;;
10387;SDS011;5240;51.128;4.566;2023-03-01T09:30:50;8.57;;;6.40;;
10387;SDS011;5240;51.128;4.566;2023-03-01T09:33:19;9.80;;;6.28;;
10387;SDS011;5240;51.128;4.566;2023-03-01T09:35:55;8.98;;;6.93;;
10387;SDS011;5240;51.128;4.566;2023-03-01T09:38:25;12.57;;;7.13;;
10387;SDS011;5240;51.128;4.566;2023-03-01T09:40:53;7.50;;;6.68;;
10387;SDS011;5240;51.128;4.566;2023-03-01T09:43:27;8.82;;;6.63;;
10387;SDS011;5240;51.128;4.566;2023-03-01T09:46:13;10.75;;;7.25;;
10387;SDS011;5240;51.128;4.566;2023-03-01T09:51:59;10.55;;;7.07;;
10387;SDS011;5240;51.128;4.566;2023-03-01T09:57:16;8.38;;;6.50;;
10387;SDS011;5240;51.128;4.566;2023-03-01T09:59:52;9.65;;;7.07;;
10387;SDS011;5240;51.128;4.566;2023-03-01T10:02:31;10.15;;;7.28;;
10387;SDS011;5240;51.128;4.566;2023-03-01T10:05:05;16.98;;;7.43;;
10387;SDS011;5240;51.128;4.566;2023-03-01T10:07:45;9.88;;;7.15;;
10387;SDS011;5240;51.128;4.566;2023-03-01T10:10:17;9.50;;;7.20;;
10387;SDS011;5240;51.128;4.566;2023-03-01T10:23:21;14.10;;;7.13;;
10387;SDS011;5240;51.128;4.566;2023-03-01T10:25:54;8.05;;;6.68;;
10387;SDS011;5240;51.128;4.566;2023-03-01T10:28:35;9.00;;;6.82;;
10387;SDS011;5240;51.128;4.566;2023-03-01T10:31:11;10.57;;;7.25;;
10387;SDS011;5240;51.128;4.566;2023-03-01T10:33:42;8.95;;;6.95;;
10387;SDS011;5240;51.128;4.566;2023-03-01T10:36:09;9.05;;;7.20;;
10387;SDS011;5240;51.128;4.566;2023-03-01T10:41:24;9.57;;;7.10;;
10387;SDS011;5240;51.128;4.566;2023-03-01T10:43:54;8.82;;;7.05;;
10387;SDS011;5240;51.128;4.566;2023-03-01T10:46:26;9.18;;;6.70;;
10387;SDS011;5240;51.128;4.566;2023-03-01T10:49:05;8.52;;;6.88;;
10387;SDS011;5240;51.128;4.566;2023-03-01T10:51:38;8.30;;;6.35;;
10387;SDS011;5240;51.128;4.566;2023-03-01T10:54:15;8.48;;;7.32;;
10387;SDS011;5240;51.128;4.566;2023-03-01T10:56:46;8.48;;;6.88;;
10387;SDS011;5240;51.128;4.566;2023-03-01T10:59:22;11.60;;;6.85;;
10387;SDS011;5240;51.128;4.566;2023-03-01T11:04:27;12.80;;;7.07;;
10387;SDS011;5240;51.128;4.566;2023-03-01T11:17:37;9.70;;;6.70;;
10387;SDS011;5240;51.128;4.566;2023-03-01T11:20:14;8.18;;;6.63;;
10387;SDS011;5240;51.128;4.566;2023-03-01T11:22:50;8.48;;;6.63;;
10387;SDS011;5240;51.128;4.566;2023-03-01T11:25:20;12.43;;;7.15;;
10387;SDS011;5240;51.128;4.566;2023-03-01T11:27:51;9.85;;;7.13;;
10387;SDS011;5240;51.128;4.566;2023-03-01T11:30:21;9.35;;;6.57;;
10387;SDS011;5240;51.128;4.566;2023-03-01T11:33:01;9.40;;;6.80;;
10387;SDS011;5240;51.128;4.566;2023-03-01T11:35:41;8.15;;;6.47;;
10387;SDS011;5240;51.128;4.566;2023-03-01T11:38:46;9.02;;;6.72;;
10387;SDS011;5240;51.128;4.566;2023-03-01T11:41:15;9.45;;;6.60;;
10387;SDS011;5240;51.128;4.566;2023-03-01T11:43:47;9.32;;;6.32;;
10387;SDS011;5240;51.128;4.566;2023-03-01T11:46:28;11.57;;;6.57;;
10387;SDS011;5240;51.128;4.566;2023-03-01T11:49:17;8.45;;;6.05;;
10387;SDS011;5240;51.128;4.566;2023-03-01T11:52:00;8.32;;;6.40;;
10387;SDS011;5240;51.128;4.566;2023-03-01T11:54:35;16.10;;;6.72;;
10387;SDS011;5240;51.128;4.566;2023-03-01T11:57:13;10.43;;;7.05;;
10387;SDS011;5240;51.128;4.566;2023-03-01T11:59:52;9.55;;;6.78;;
10387;SDS011;5240;51.128;4.566;2023-03-01T12:05:52;9.55;;;6.32;;
10387;SDS011;5240;51.128;4.566;2023-03-01T12:08:40;6.88;;;6.18;;
10387;SDS011;5240;51.128;4.566;2023-03-01T12:11:14;9.27;;;6.35;;
10387;SDS011;5240;51.128;4.566;2023-03-01T12:13:56;7.63;;;6.32;;
10387;SDS011;5240;51.128;4.566;2023-03-01T12:16:50;8.82;;;6.40;;
10387;SDS011;5240;51.128;4.566;2023-03-01T12:19:31;8.27;;;6.95;;
10387;SDS011;5240;51.128;4.566;2023-03-01T12:22:12;7.35;;;6.43;;
10387;SDS011;5240;51.128;4.566;2023-03-01T12:24:56;14.15;;;7.10;;
10387;SDS011;5240;51.128;4.566;2023-03-01T12:27:41;7.38;;;6.68;;
10387;SDS011;5240;51.128;4.566;2023-03-01T12:30:25;11.85;;;7.20;;
10387;SDS011;5240;51.128;4.566;2023-03-01T12:33:03;6.95;;;6.25;;
10387;SDS011;5240;51.128;4.566;2023-03-01T12:38:50;7.63;;;6.18;;
10387;SDS011;5240;51.128;4.566;2023-03-01T12:41:32;8.90;;;6.55;;
10387;SDS011;5240;51.128;4.566;2023-03-01T12:44:15;8.95;;;6.53;;
10387;SDS011;5240;51.128;4.566;2023-03-01T12:47:05;9.15;;;6.43;;
10387;SDS011;5240;51.128;4.566;2023-03-01T12:49:44;12.02;;;7.20;;
10387;SDS011;5240;51.128;4.566;2023-03-01T12:52:16;11.45;;;6.40;;
10387;SDS011;5240;51.128;4.566;2023-03-01T12:54:51;8.38;;;6.60;;
10387;SDS011;5240;51.128;4.566;2023-03-01T12:57:21;9.88;;;6.88;;
10387;SDS011;5240;51.128;4.566;2023-03-01T12:59:59;9.48;;;7.10;;
10387;SDS011;5240;51.128;4.566;2023-03-01T13:02:40;7.22;;;6.45;;
10387;SDS011;5240;51.128;4.566;2023-03-01T13:05:19;10.27;;;7.15;;
10387;SDS011;5240;51.128;4.566;2023-03-01T13:07:55;7.88;;;6.25;;
10387;SDS011;5240;51.128;4.566;2023-03-01T13:10:31;10.57;;;6.60;;
10387;SDS011;5240;51.128;4.566;2023-03-01T13:13:13;7.20;;;5.85;;
10387;SDS011;5240;51.128;4.566;2023-03-01T13:15:45;7.85;;;5.90;;
10387;SDS011;5240;51.128;4.566;2023-03-01T13:18:29;7.68;;;6.28;;
10387;SDS011;5240;51.128;4.566;2023-03-01T13:20:58;8.43;;;6.10;;
10387;SDS011;5240;51.128;4.566;2023-03-01T13:23:28;8.38;;;6.50;;
10387;SDS011;5240;51.128;4.566;2023-03-01T13:26:04;9.25;;;5.97;;
10387;SDS011;5240;51.128;4.566;2023-03-01T13:34:41;11.20;;;6.75;;
10387;SDS011;5240;51.128;4.566;2023-03-01T13:37:22;8.52;;;6.40;;
10387;SDS011;5240;51.128;4.566;2023-03-01T13:39:56;6.57;;;5.72;;
10387;SDS011;5240;51.128;4.566;2023-03-01T13:42:33;7.20;;;6.05;;
10387;SDS011;5240;51.128;4.566;2023-03-01T13:45:03;7.65;;;5.93;;
10387;SDS011;5240;51.128;4.566;2023-03-01T13:47:40;9.82;;;6.45;;
10387;SDS011;5240;51.128;4.566;2023-03-01T13:50:15;8.23;;;6.20;;
10387;SDS011;5240;51.128;4.566;2023-03-01T13:52:46;9.13;;;5.80;;
10387;SDS011;5240;51.128;4.566;2023-03-01T13:55:18;9.00;;;6.43;;
10387;SDS011;5240;51.128;4.566;2023-03-01T13:57:50;9.35;;;6.70;;
10387;SDS011;5240;51.128;4.566;2023-03-01T14:00:33;8.45;;;6.50;;
10387;SDS011;5240;51.128;4.566;2023-03-01T14:03:02;8.88;;;6.53;;
10387;SDS011;5240;51.128;4.566;2023-03-01T14:05:32;9.70;;;7.03;;
10387;SDS011;5240;51.128;4.566;2023-03-01T14:08:01;9.93;;;6.80;;
10387;SDS011;5240;51.128;4.566;2023-03-01T14:10:35;6.97;;;6.18;;
10387;SDS011;5240;51.128;4.566;2023-03-01T14:13:17;8.65;;;6.60;;
10387;SDS011;5240;51.128;4.566;2023-03-01T14:15:58;9.05;;;6.97;;
10387;SDS011;5240;51.128;4.566;2023-03-01T14:18:35;10.95;;;6.90;;
10387;SDS011;5240;51.128;4.566;2023-03-01T14:21:07;11.23;;;6.93;;
10387;SDS011;5240;51.128;4.566;2023-03-01T14:23:35;8.93;;;6.50;;
10387;SDS011;5240;51.128;4.566;2023-03-01T14:26:07;9.18;;;7.22;;
10387;SDS011;5240;51.128;4.566;2023-03-01T14:28:38;8.68;;;6.95;;
10387;SDS011;5240;51.128;4.566;2023-03-01T14:34:00;9.50;;;7.13;;
10387;SDS011;5240;51.128;4.566;2023-03-01T14:36:28;12.00;;;7.30;;
10387;SDS011;5240;51.128;4.566;2023-03-01T14:38:56;9.32;;;6.97;;
10387;SDS011;5240;51.128;4.566;2023-03-01T14:41:29;7.75;;;6.75;;
10387;SDS011;5240;51.128;4.566;2023-03-01T14:44:01;8.85;;;6.90;;
10387;SDS011;5240;51.128;4.566;2023-03-01T14:46:31;8.95;;;6.90;;
10387;SDS011;5240;51.128;4.566;2023-03-01T14:49:02;7.47;;;6.60;;
10387;SDS011;5240;51.128;4.566;2023-03-01T14:51:30;10.25;;;7.18;;
10387;SDS011;5240;51.128;4.566;2023-03-01T14:54:01;9.10;;;6.97;;
10387;SDS011;5240;51.128;4.566;2023-03-01T14:56:29;8.30;;;6.72;;
10387;SDS011;5240;51.128;4.566;2023-03-01T14:59:11;8.32;;;7.00;;
10387;SDS011;5240;51.128;4.566;2023-03-01T15:01:39;9.25;;;7.13;;
10387;SDS011;5240;51.128;4.566;2023-03-01T15:04:09;10.45;;;6.57;;
10387;SDS011;5240;51.128;4.566;2023-03-01T15:06:39;8.63;;;6.65;;
10387;SDS011;5240;51.128;4.566;2023-03-01T15:09:06;7.05;;;6.10;;
10387;SDS011;5240;51.128;4.566;2023-03-01T15:11:38;7.80;;;5.90;;
10387;SDS011;5240;51.128;4.566;2023-03-01T15:17:04;7.60;;;6.20;;
10387;SDS011;5240;51.128;4.566;2023-03-01T15:19:40;8.05;;;5.80;;
10387;SDS011;5240;51.128;4.566;2023-03-01T15:22:12;9.43;;;6.47;;
10387;SDS011;5240;51.128;4.566;2023-03-01T15:24:41;8.75;;;6.20;;
10387;SDS011;5240;51.128;4.566;2023-03-01T15:27:14;7.65;;;6.00;;
10387;SDS011;5240;51.128;4.566;2023-03-01T15:29:48;8.50;;;5.43;;
10387;SDS011;5240;51.128;4.566;2023-03-01T15:32:23;12.68;;;6.55;;
10387;SDS011;5240;51.128;4.566;2023-03-01T15:34:53;9.10;;;5.63;;
10387;SDS011;5240;51.128;4.566;2023-03-01T15:40:20;6.60;;;5.40;;
10387;SDS011;5240;51.128;4.566;2023-03-01T15:42:56;10.13;;;5.82;;
10387;SDS011;5240;51.128;4.566;2023-03-01T15:45:25;7.22;;;5.80;;
10387;SDS011;5240;51.128;4.566;2023-03-01T15:47:54;9.25;;;6.30;;
10387;SDS011;5240;51.128;4.566;2023-03-01T15:50:24;7.53;;;5.70;;
10387;SDS011;5240;51.128;4.566;2023-03-01T15:52:52;9.40;;;6.00;;
10387;SDS011;5240;51.128;4.566;2023-03-01T15:55:21;7.75;;;5.80;;
10387;SDS011;5240;51.128;4.566;2023-03-01T15:57:50;6.47;;;5.45;;
10387;SDS011;5240;51.128;4.566;2023-03-01T16:00:27;7.15;;;6.13;;
10387;SDS011;5240;51.128;4.566;2023-03-01T16:02:55;8.18;;;6.15;;
10387;SDS011;5240;51.128;4.566;2023-03-01T16:05:24;9.40;;;6.50;;
10387;SDS011;5240;51.128;4.566;2023-03-01T16:07:52;10.75;;;7.10;;
10387;SDS011;5240;51.128;4.566;2023-03-01T16:10:20;7.28;;;6.47;;
10387;SDS011;5240;51.128;4.566;2023-03-01T16:12:48;8.15;;;6.18;;
10387;SDS011;5240;51.128;4.566;2023-03-01T16:15:17;8.70;;;5.90;;
10387;SDS011;5240;51.128;4.566;2023-03-01T16:17:48;9.48;;;6.65;;
10387;SDS011;5240;51.128;4.566;2023-03-01T16:20:15;9.13;;;5.90;;
10387;SDS011;5240;51.128;4.566;2023-03-01T16:22:42;8.15;;;6.20;;
10387;SDS011;5240;51.128;4.566;2023-03-01T16:25:10;10.90;;;6.10;;